createdAt,value
2019-05-30T00:02:14.969Z,91.40
2019-05-30T00:04:43.218Z,91.50
2019-05-30T00:07:11.497Z,91.50
2019-05-30T00:09:41.205Z,91.60
2019-05-30T00:12:09.537Z,91.60
2019-05-30T00:14:37.817Z,91.70
2019-05-30T00:17:06.102Z,91.70
2019-05-30T00:19:34.374Z,91.80
2019-05-30T00:22:03.903Z,91.80
2019-05-30T00:24:32.627Z,91.90
2019-05-30T00:27:00.864Z,91.80
2019-05-30T00:29:29.569Z,91.80
2019-05-30T00:31:57.802Z,91.90
2019-05-30T00:34:26.061Z,91.90
2019-05-30T00:36:55.574Z,92.00
2019-05-30T00:39:23.974Z,92.10
2019-05-30T00:41:52.245Z,92.10
2019-05-30T00:44:20.521Z,92.10
2019-05-30T00:46:48.777Z,92.10
2019-05-30T00:49:17.027Z,92.00
2019-05-30T00:51:45.334Z,92.00
2019-05-30T00:54:13.561Z,92.00
2019-05-30T00:56:41.846Z,92.00
2019-05-30T00:59:10.078Z,92.00
2019-05-30T01:01:38.337Z,92.00
2019-05-30T01:04:07.143Z,92.00
2019-05-30T01:06:35.624Z,92.10
2019-05-30T01:09:05.195Z,92.10
2019-05-30T01:11:33.568Z,92.20
2019-05-30T01:14:03.664Z,92.20
2019-05-30T01:16:31.790Z,92.20
2019-05-30T01:19:01.064Z,92.20
2019-05-30T01:21:29.413Z,92.20
2019-05-30T01:23:57.688Z,92.20
2019-05-30T01:26:25.961Z,92.20
2019-05-30T01:28:54.244Z,92.20
2019-05-30T01:31:22.485Z,92.20
2019-05-30T01:33:50.742Z,92.30
2019-05-30T01:36:18.979Z,92.30
2019-05-30T01:38:47.263Z,92.30
2019-05-30T01:41:17.671Z,92.20
2019-05-30T01:43:45.564Z,92.20
2019-05-30T01:46:13.806Z,92.10
2019-05-30T01:48:42.077Z,92.00
2019-05-30T01:51:10.330Z,92.00
2019-05-30T01:53:38.579Z,92.00
2019-05-30T01:56:06.871Z,92.00
2019-05-30T01:58:35.175Z,92.00
2019-05-30T02:01:19.083Z,92.10
2019-05-30T02:03:33.384Z,92.10
2019-05-30T02:06:03.091Z,92.20
2019-05-30T02:08:31.561Z,92.20
2019-05-30T02:11:01.198Z,92.20
2019-05-30T02:13:29.670Z,92.30
2019-05-30T02:15:59.483Z,92.30
2019-05-30T02:18:27.959Z,92.30
2019-05-30T02:20:56.194Z,92.40
2019-05-30T02:23:24.465Z,92.40
2019-05-30T02:25:52.728Z,92.40
2019-05-30T02:28:20.975Z,92.50
2019-05-30T02:30:49.315Z,92.50
2019-05-30T02:33:17.551Z,92.40
2019-05-30T02:35:45.805Z,92.40
2019-05-30T02:38:14.037Z,92.40
2019-05-30T02:40:42.323Z,92.40
2019-05-30T02:43:12.219Z,92.40
2019-05-30T02:45:40.791Z,92.40
2019-05-30T02:48:09.967Z,92.40
2019-05-30T02:50:39.021Z,92.40
2019-05-30T02:53:08.320Z,92.30
2019-05-30T02:55:37.272Z,92.30
2019-05-30T02:58:06.211Z,92.20
2019-05-30T03:00:36.612Z,92.30
2019-05-30T03:03:06.539Z,92.20
2019-05-30T03:05:35.257Z,92.20
2019-05-30T03:08:04.936Z,92.30
2019-05-30T03:10:33.520Z,92.30
2019-05-30T03:13:01.924Z,92.20
2019-05-30T03:15:30.296Z,92.30
2019-05-30T03:17:58.539Z,92.30
2019-05-30T03:20:26.784Z,92.20
2019-05-30T03:22:55.058Z,92.30
2019-05-30T03:25:23.292Z,92.30
2019-05-30T03:27:51.556Z,92.20
2019-05-30T03:30:27.650Z,92.10
2019-05-30T03:33:19.439Z,92.00
2019-05-30T03:35:28.356Z,92.20
2019-05-30T03:37:49.760Z,92.20
2019-05-30T03:40:19.174Z,92.20
2019-05-30T03:42:48.381Z,92.30
2019-05-30T03:45:16.784Z,92.40
2019-05-30T03:47:51.367Z,92.40
2019-05-30T03:50:19.696Z,92.40
2019-05-30T03:52:47.965Z,92.50
2019-05-30T03:55:16.745Z,92.50
2019-05-30T03:58:00.255Z,92.60
2019-05-30T04:00:32.434Z,92.70
2019-05-30T04:03:25.121Z,92.70
2019-05-30T04:05:55.793Z,92.70
2019-05-30T04:08:24.065Z,92.60
2019-05-30T04:10:53.467Z,92.50
2019-05-30T04:13:24.885Z,92.30
2019-05-30T04:15:53.141Z,92.40
2019-05-30T04:18:21.435Z,92.50
2019-05-30T04:20:49.744Z,92.60
2019-05-30T04:23:19.505Z,92.70
2019-05-30T04:25:48.051Z,92.80
2019-05-30T04:28:18.364Z,92.80
2019-05-30T04:30:46.317Z,92.80
2019-05-30T04:33:26.222Z,92.80
2019-05-30T04:35:44.622Z,92.70
2019-05-30T04:38:12.910Z,92.80
2019-05-30T04:40:41.225Z,92.80
2019-05-30T04:43:10.920Z,92.80
2019-05-30T04:45:39.302Z,92.90
2019-05-30T04:48:07.559Z,92.90
2019-05-30T04:50:35.829Z,92.80
2019-05-30T04:53:04.072Z,92.70
2019-05-30T04:55:32.344Z,92.80
2019-05-30T04:58:00.613Z,92.80
2019-05-30T05:00:28.883Z,92.90
2019-05-30T05:02:57.128Z,92.90
2019-05-30T05:05:27.079Z,93.00
2019-05-30T05:07:55.528Z,93.10
2019-05-30T05:10:23.799Z,93.00
2019-05-30T05:12:52.038Z,93.10
2019-05-30T05:15:20.716Z,93.10
2019-05-30T05:17:49.066Z,93.00
2019-05-30T05:20:17.355Z,93.00
2019-05-30T05:22:45.664Z,93.00
2019-05-30T05:25:13.939Z,93.10
2019-05-30T05:27:42.169Z,93.10
2019-05-30T05:30:10.480Z,93.40
2019-05-30T05:32:38.737Z,93.00
2019-05-30T05:35:07.083Z,92.90
2019-05-30T05:37:35.337Z,92.90
2019-05-30T05:40:05.223Z,92.80
2019-05-30T05:42:35.114Z,92.90
2019-05-30T05:45:08.089Z,92.80
2019-05-30T05:47:36.390Z,92.70
2019-05-30T05:50:05.831Z,92.70
2019-05-30T05:52:34.169Z,92.60
2019-05-30T05:55:02.424Z,92.20
2019-05-30T05:57:30.697Z,92.10
2019-05-30T05:59:58.967Z,91.80
2019-05-30T06:02:27.283Z,92.00
2019-05-30T06:04:55.539Z,91.90
2019-05-30T06:07:24.582Z,91.90
2019-05-30T06:09:53.054Z,91.60
2019-05-30T06:12:21.732Z,91.30
2019-05-30T06:14:50.155Z,91.10
2019-05-30T06:17:18.977Z,91.10
2019-05-30T06:19:47.410Z,91.20
2019-05-30T06:22:15.666Z,91.30
2019-05-30T06:24:43.925Z,91.10
2019-05-30T06:27:12.225Z,91.50
2019-05-30T06:29:40.542Z,91.10
2019-05-30T06:32:08.822Z,91.00
2019-05-30T06:34:39.660Z,90.50
2019-05-30T06:37:07.157Z,90.30
2019-05-30T06:39:35.566Z,90.60
2019-05-30T06:42:03.872Z,90.10
2019-05-30T06:44:32.865Z,89.30
2019-05-30T06:47:01.121Z,88.70
2019-05-30T06:49:30.923Z,89.00
2019-05-30T06:51:59.695Z,88.60
2019-05-30T06:54:29.395Z,88.60
2019-05-30T06:56:57.875Z,87.40
2019-05-30T06:59:26.162Z,87.90
2019-05-30T07:01:54.437Z,87.10
2019-05-30T07:04:23.414Z,86.80
2019-05-30T07:06:52.836Z,87.60
2019-05-30T07:09:22.604Z,85.10
2019-05-30T07:11:50.991Z,81.00
2019-05-30T07:14:19.240Z,79.50
2019-05-30T07:16:47.557Z,81.30
2019-05-30T07:19:15.801Z,78.60
2019-05-30T07:21:44.045Z,76.10
2019-05-30T07:24:12.301Z,75.00
2019-05-30T07:26:40.546Z,76.70
2019-05-30T07:29:08.804Z,78.20
2019-05-30T07:31:37.045Z,78.10
2019-05-30T07:34:05.306Z,76.70
2019-05-30T07:36:34.468Z,77.30
2019-05-30T07:39:02.897Z,78.50
2019-05-30T07:41:31.162Z,78.70
2019-05-30T07:43:59.580Z,79.10
2019-05-30T07:46:28.945Z,78.70
2019-05-30T07:48:57.703Z,78.50
2019-05-30T07:51:26.422Z,78.80
2019-05-30T07:53:55.066Z,78.50
2019-05-30T07:56:23.498Z,78.70
2019-05-30T07:58:52.048Z,75.00
2019-05-30T08:01:21.318Z,74.60
2019-05-30T08:03:50.238Z,70.70
2019-05-30T08:06:18.985Z,73.50
2019-05-30T08:08:47.432Z,70.80
2019-05-30T08:11:16.015Z,72.60
2019-05-30T08:13:44.871Z,80.20
2019-05-30T08:16:13.492Z,71.90
2019-05-30T08:18:42.092Z,73.50
2019-05-30T08:21:10.601Z,71.70
2019-05-30T08:23:39.003Z,79.90
2019-05-30T08:26:07.700Z,79.70
2019-05-30T08:28:36.410Z,78.80
2019-05-30T08:31:05.054Z,74.30
2019-05-30T08:33:33.649Z,75.70
2019-05-30T08:36:05.548Z,78.10
2019-05-30T08:38:33.132Z,78.90
2019-05-30T08:41:01.822Z,76.60
2019-05-30T08:43:31.265Z,76.60
2019-05-30T08:45:59.793Z,75.10
2019-05-30T08:48:28.193Z,77.00
2019-05-30T08:50:56.589Z,76.00
2019-05-30T08:53:24.822Z,75.50
2019-05-30T08:55:53.137Z,75.70
2019-05-30T08:58:21.425Z,76.50
2019-05-30T09:00:49.676Z,78.10
2019-05-30T09:03:17.906Z,77.50
2019-05-30T09:05:59.277Z,75.90
2019-05-30T09:08:16.148Z,76.10
2019-05-30T09:10:44.479Z,77.80
2019-05-30T09:13:12.747Z,78.80
2019-05-30T09:15:41.153Z,78.60
2019-05-30T09:18:09.438Z,78.50
2019-05-30T09:20:38.422Z,80.00
2019-05-30T09:23:07.642Z,79.10
2019-05-30T09:25:35.906Z,77.30
2019-05-30T09:28:04.174Z,76.10
2019-05-30T09:30:32.437Z,75.30
2019-05-30T09:33:00.691Z,76.10
2019-05-30T09:35:28.948Z,74.60
2019-05-30T09:37:57.212Z,73.60
2019-05-30T09:40:25.455Z,71.40
2019-05-30T09:42:53.727Z,71.00
2019-05-30T09:45:22.122Z,69.50
2019-05-30T09:47:51.390Z,67.00
2019-05-30T09:50:20.771Z,68.20
2019-05-30T09:55:17.889Z,57.20
2019-05-30T09:57:47.445Z,59.10
2019-05-30T10:00:20.033Z,61.40
2019-05-30T10:02:48.791Z,63.10
2019-05-30T10:05:18.186Z,62.90
2019-05-30T10:07:47.539Z,64.90
2019-05-30T10:10:17.911Z,64.40
2019-05-30T10:12:46.934Z,64.60
2019-05-30T10:15:15.611Z,64.20
2019-05-30T10:17:45.561Z,64.90
2019-05-30T10:20:13.839Z,64.20
2019-05-30T10:22:42.095Z,64.70
2019-05-30T10:25:10.335Z,64.90
2019-05-30T10:27:38.610Z,62.30
2019-05-30T10:30:08.538Z,63.30
2019-05-30T10:32:36.812Z,61.70
2019-05-30T10:35:05.687Z,63.30
2019-05-30T10:37:34.035Z,61.40
2019-05-30T10:40:02.469Z,60.40
2019-05-30T10:42:30.736Z,61.50
2019-05-30T10:44:58.977Z,62.20
2019-05-30T10:47:27.233Z,60.30
2019-05-30T10:49:55.477Z,61.50
2019-05-30T10:52:23.728Z,64.60
2019-05-30T10:54:51.960Z,63.60
2019-05-30T10:57:20.237Z,62.20
2019-05-30T10:59:48.935Z,64.50
2019-05-30T11:02:18.471Z,65.10
2019-05-30T11:04:47.678Z,60.90
2019-05-30T11:07:22.876Z,64.70
2019-05-30T11:09:57.433Z,58.80
2019-05-30T11:12:25.785Z,59.20
2019-05-30T11:14:55.285Z,62.30
2019-05-30T11:17:23.607Z,77.00
2019-05-30T11:19:52.069Z,81.30
2019-05-30T11:22:20.380Z,89.50
2019-05-30T11:24:48.636Z,89.80
2019-05-30T11:27:17.004Z,88.30
2019-05-30T11:29:45.327Z,85.30
2019-05-30T11:32:13.569Z,78.30
2019-05-30T11:34:41.867Z,78.50
2019-05-30T11:37:18.848Z,75.60
2019-05-30T11:39:40.203Z,75.50
2019-05-30T11:42:11.240Z,74.30
2019-05-30T11:44:39.474Z,75.50
2019-05-30T11:47:07.783Z,80.10
2019-05-30T11:49:36.085Z,79.50
2019-05-30T11:52:04.326Z,77.30
2019-05-30T11:54:32.577Z,75.00
2019-05-30T11:57:00.887Z,73.10
2019-05-30T11:59:29.203Z,74.80
2019-05-30T12:01:58.483Z,74.20
2019-05-30T12:04:26.905Z,74.10
2019-05-30T12:06:55.160Z,72.30
2019-05-30T12:09:23.423Z,79.30
2019-05-30T12:11:52.977Z,80.30
2019-05-30T12:19:17.919Z,89.20
2019-05-30T12:21:46.208Z,78.50
2019-05-30T12:24:14.529Z,74.10
2019-05-30T12:26:42.841Z,75.00
2019-05-30T12:29:11.083Z,77.20
2019-05-30T12:31:39.412Z,75.50
2019-05-30T12:34:07.661Z,80.10
2019-05-30T12:36:35.935Z,77.70
2019-05-30T12:39:06.428Z,75.70
2019-05-30T12:41:34.685Z,73.40
2019-05-30T12:44:03.361Z,73.60
2019-05-30T12:46:31.788Z,72.10
2019-05-30T12:49:01.442Z,73.30
2019-05-30T12:51:29.939Z,73.40
2019-05-30T12:53:58.509Z,73.20
2019-05-30T12:56:26.896Z,74.50
2019-05-30T12:58:55.165Z,75.00
2019-05-30T13:01:26.790Z,77.50
2019-05-30T13:03:53.397Z,74.70
2019-05-30T13:06:22.815Z,75.00
2019-05-30T13:08:51.071Z,73.40
2019-05-30T13:11:19.326Z,73.80
2019-05-30T13:13:47.588Z,75.80
2019-05-30T13:16:15.817Z,73.80
2019-05-30T13:18:44.086Z,74.50
2019-05-30T13:21:12.325Z,70.20
2019-05-30T13:23:40.598Z,70.20
2019-05-30T13:26:08.838Z,71.10
2019-05-30T13:28:37.071Z,74.60
2019-05-30T13:31:06.973Z,75.30
2019-05-30T13:33:38.378Z,75.00
2019-05-30T13:36:05.560Z,73.20
2019-05-30T13:38:33.821Z,72.30
2019-05-30T13:41:02.085Z,73.80
2019-05-30T13:43:30.325Z,72.70
2019-05-30T13:45:58.571Z,72.50
2019-05-30T13:48:26.824Z,72.70
2019-05-30T13:50:55.107Z,72.90
2019-05-30T13:53:23.355Z,70.90
2019-05-30T13:55:51.613Z,71.00
2019-05-30T13:58:19.873Z,70.20
2019-05-30T14:00:48.117Z,68.90
2019-05-30T14:03:16.387Z,69.20
2019-05-30T14:05:44.615Z,71.20
2019-05-30T14:08:16.488Z,72.60
2019-05-30T14:10:42.899Z,72.40
2019-05-30T14:13:11.363Z,72.20
2019-05-30T14:15:39.697Z,71.80
2019-05-30T14:18:09.024Z,71.10
2019-05-30T14:20:37.395Z,73.00
2019-05-30T14:23:05.675Z,73.40
2019-05-30T14:25:33.948Z,75.30
2019-05-30T14:28:04.041Z,72.30
2019-05-30T14:30:32.211Z,72.60
2019-05-30T14:33:01.982Z,73.20
2019-05-30T14:35:30.388Z,73.40
2019-05-30T14:37:58.628Z,72.20
2019-05-30T14:40:30.002Z,71.30
2019-05-30T14:42:58.278Z,72.10
2019-05-30T14:45:28.018Z,72.30
2019-05-30T14:47:56.452Z,70.60
2019-05-30T14:50:26.371Z,70.50
2019-05-30T14:52:54.637Z,69.20
2019-05-30T14:55:22.893Z,69.90
2019-05-30T14:57:51.138Z,70.40
2019-05-30T15:00:20.748Z,71.90
2019-05-30T15:03:26.120Z,69.80
2019-05-30T15:06:08.551Z,69.60
2019-05-30T15:08:48.236Z,70.40
2019-05-30T15:11:16.585Z,72.10
2019-05-30T15:13:44.881Z,71.30
2019-05-30T15:16:13.160Z,68.30
2019-05-30T15:18:41.456Z,69.10
2019-05-30T15:21:10.323Z,69.00
2019-05-30T15:23:38.712Z,68.60
2019-05-30T15:26:07.868Z,66.60
2019-05-30T15:28:36.321Z,66.70
2019-05-30T15:31:04.575Z,66.10
2019-05-30T15:33:32.832Z,65.30
2019-05-30T15:36:01.128Z,64.90
2019-05-30T15:38:29.393Z,64.80
2019-05-30T15:40:57.741Z,65.40
2019-05-30T15:43:25.984Z,65.30
2019-05-30T15:45:54.243Z,65.80
2019-05-30T15:48:22.496Z,67.20
2019-05-30T15:50:50.764Z,67.00
2019-05-30T15:53:19.807Z,67.80
2019-05-30T15:55:50.566Z,67.20
2019-05-30T15:58:20.493Z,65.60
2019-05-30T16:00:49.013Z,65.10
2019-05-30T16:03:18.419Z,65.10
2019-05-30T16:05:46.836Z,66.30
2019-05-30T16:08:15.148Z,65.50
2019-05-30T16:10:43.386Z,64.50
2019-05-30T16:13:11.655Z,63.60
2019-05-30T16:15:39.888Z,61.80
2019-05-30T16:18:08.152Z,61.20
2019-05-30T16:20:36.439Z,61.50
2019-05-30T16:23:04.687Z,59.60
2019-05-30T16:25:32.953Z,61.10
2019-05-30T16:28:01.185Z,61.60
2019-05-30T16:30:29.410Z,60.80
2019-05-30T16:32:57.667Z,61.10
2019-05-30T16:35:26.477Z,62.10
2019-05-30T16:37:54.921Z,61.20
2019-05-30T16:40:23.206Z,61.40
2019-05-30T16:42:51.468Z,61.60
2019-05-30T16:45:24.638Z,61.40
2019-05-30T16:47:49.789Z,64.10
2019-05-30T16:50:19.047Z,63.50
2019-05-30T16:52:47.545Z,62.00
2019-05-30T16:55:17.096Z,60.60
2019-05-30T16:57:45.605Z,60.50
2019-05-30T17:00:15.854Z,61.00
2019-05-30T17:02:44.125Z,61.10
2019-05-30T17:05:12.384Z,60.20
2019-05-30T17:07:40.674Z,57.70
2019-05-30T17:10:22.378Z,56.70
2019-05-30T17:12:38.960Z,56.70
2019-05-30T17:15:08.362Z,57.00
2019-05-30T17:17:36.651Z,57.20
2019-05-30T17:20:12.541Z,57.10
2019-05-30T17:22:40.803Z,54.60
2019-05-30T17:25:10.217Z,56.70
2019-05-30T17:27:38.479Z,57.40
2019-05-30T17:30:07.266Z,58.00
2019-05-30T17:32:35.505Z,56.50
2019-05-30T17:35:06.417Z,56.90
2019-05-30T17:37:34.739Z,57.30
2019-05-30T17:40:04.728Z,56.20
2019-05-30T17:42:36.025Z,55.40
2019-05-30T17:45:08.481Z,56.10
2019-05-30T17:47:36.717Z,55.30
2019-05-30T17:50:13.897Z,55.70
2019-05-30T17:52:42.164Z,57.00
2019-05-30T17:55:10.418Z,56.60
2019-05-30T17:57:38.673Z,56.70
2019-05-30T18:00:11.121Z,56.60
2019-05-30T18:02:40.160Z,56.40
2019-05-30T18:05:08.427Z,56.30
2019-05-30T18:07:36.668Z,56.10
2019-05-30T18:10:07.800Z,56.70
2019-05-30T18:12:36.133Z,56.90
2019-05-30T18:15:09.836Z,58.20
2019-05-30T18:17:38.103Z,57.60
2019-05-30T18:20:09.473Z,59.20
2019-05-30T18:22:37.793Z,58.70
2019-05-30T18:25:06.484Z,61.30
2019-05-30T18:27:34.760Z,60.50
2019-05-30T18:30:03.647Z,61.10
2019-05-30T18:32:32.652Z,61.80
2019-05-30T18:35:00.924Z,63.00
2019-05-30T18:37:30.404Z,64.40
2019-05-30T18:39:58.813Z,65.00
2019-05-30T18:42:27.389Z,65.90
2019-05-30T18:44:55.705Z,68.10
2019-05-30T18:47:24.992Z,69.10
2019-05-30T18:49:53.409Z,70.00
2019-05-30T18:52:21.691Z,72.00
2019-05-30T18:54:49.965Z,72.00
2019-05-30T18:57:18.212Z,71.60
2019-05-30T18:59:46.482Z,71.50
2019-05-30T19:02:18.278Z,71.60
2019-05-30T19:04:44.862Z,73.50
2019-05-30T19:07:13.118Z,75.30
2019-05-30T19:09:41.346Z,76.20
2019-05-30T19:12:09.609Z,76.90
2019-05-30T19:14:37.876Z,80.50
2019-05-30T19:17:06.113Z,83.80
2019-05-30T19:19:34.347Z,83.40
2019-05-30T19:22:02.682Z,83.00
2019-05-30T19:24:32.081Z,82.80
2019-05-30T19:27:00.412Z,82.70
2019-05-30T19:29:28.989Z,82.40
2019-05-30T19:31:57.294Z,82.30
2019-05-30T19:34:26.559Z,82.80
2019-05-30T19:36:54.900Z,87.80
2019-05-30T19:39:23.163Z,87.60
2019-05-30T19:41:57.056Z,88.00
2019-05-30T19:44:21.387Z,89.30
2019-05-30T19:46:49.660Z,90.30
2019-05-30T19:49:17.965Z,90.90
2019-05-30T19:51:47.233Z,91.80
2019-05-30T19:54:15.550Z,92.50
2019-05-30T19:56:43.824Z,92.10
2019-05-30T19:59:12.060Z,92.40
2019-05-30T20:11:35.210Z,95.00
2019-05-30T21:20:51.107Z,88.20
2019-05-30T21:23:19.343Z,89.70
2019-05-30T21:25:47.651Z,90.10
2019-05-30T21:28:15.930Z,90.50
2019-05-30T21:30:45.303Z,90.70
2019-05-30T21:33:13.717Z,92.10
2019-05-30T21:35:42.040Z,90.10
2019-05-30T21:38:13.192Z,84.40
2019-05-30T21:40:42.459Z,86.00
2019-05-30T21:43:13.838Z,85.10
2019-05-30T21:45:42.546Z,84.30
2019-05-30T21:48:10.935Z,85.50
2019-05-30T21:50:40.925Z,85.50
2019-05-30T21:53:09.150Z,85.90
2019-05-30T22:01:21.388Z,85.00
2019-05-30T22:03:50.996Z,84.80
2019-05-30T22:06:19.479Z,85.80
2019-05-30T22:08:47.807Z,85.70
2019-05-30T22:11:16.036Z,87.00
2019-05-30T22:13:45.292Z,87.00
2019-05-30T22:16:13.824Z,86.20
2019-05-30T22:18:42.073Z,86.10
2019-05-30T22:21:10.337Z,87.20
2019-05-30T22:23:38.581Z,86.80
2019-05-30T22:26:07.388Z,86.10
2019-05-30T22:28:35.629Z,85.90
2019-05-30T22:31:03.885Z,86.70
2019-05-30T22:33:32.125Z,86.80
2019-05-30T22:36:00.383Z,87.70
2019-05-30T22:38:28.638Z,87.80
2019-05-30T22:40:56.882Z,87.70
2019-05-30T22:43:25.741Z,87.40
2019-05-30T22:45:54.084Z,87.90
2019-05-30T22:48:22.329Z,87.50
2019-05-30T22:50:50.735Z,87.50
2019-05-30T22:53:19.122Z,88.80
2019-05-30T22:55:47.373Z,88.20
2019-05-30T22:58:15.610Z,88.20
2019-05-30T23:00:43.873Z,88.00
2019-05-30T23:03:12.132Z,87.20
2019-05-30T23:05:40.383Z,88.10
2019-05-30T23:08:08.641Z,87.20
2019-05-30T23:10:36.884Z,87.70
2019-05-30T23:13:05.181Z,86.90
2019-05-30T23:15:33.458Z,87.30
2019-05-30T23:18:01.744Z,87.00
2019-05-30T23:20:30.030Z,87.20
2019-05-30T23:22:58.282Z,87.50
2019-05-30T23:25:26.542Z,87.90
2019-05-30T23:27:55.633Z,88.10
2019-05-30T23:30:24.036Z,88.00
2019-05-30T23:32:52.276Z,87.90
2019-05-30T23:35:20.537Z,88.00
2019-05-30T23:37:48.788Z,87.70
2019-05-30T23:40:17.041Z,87.50
2019-05-30T23:42:45.306Z,87.10
2019-05-30T23:45:13.543Z,86.80
2019-05-30T23:47:41.805Z,86.70
2019-05-30T23:50:10.072Z,86.70
2019-05-30T23:52:38.308Z,86.80
2019-05-30T23:55:06.608Z,86.50
2019-05-30T23:57:34.839Z,86.30
